createdAt,value
2022-12-03T00:00:12.882Z,50.08
2022-12-03T00:02:41.547Z,50.42
2022-12-03T00:05:10.342Z,50.10
2022-12-03T00:07:38.186Z,55.72
2022-12-03T00:10:07.863Z,51.97
2022-12-03T00:12:36.972Z,40.53
2022-12-03T00:15:05.754Z,39.67
2022-12-03T00:17:33.662Z,39.33
2022-12-03T00:20:01.459Z,36.38
2022-12-03T00:22:29.234Z,35.28
2022-12-03T00:24:57.042Z,33.13
2022-12-03T00:27:24.798Z,28.80
2022-12-03T00:29:53.927Z,26.63
2022-12-03T00:32:21.723Z,25.98
2022-12-03T00:34:49.514Z,29.58
2022-12-03T00:37:17.314Z,28.40
2022-12-03T00:39:45.126Z,27.17
2022-12-03T00:42:12.900Z,26.17
2022-12-03T00:44:40.871Z,37.45
2022-12-03T00:47:10.522Z,40.97
2022-12-03T00:49:38.355Z,44.07
2022-12-03T00:52:06.133Z,46.63
2022-12-03T00:54:34.410Z,44.78
2022-12-03T00:57:02.180Z,46.47
2022-12-03T00:59:29.952Z,47.97
2022-12-03T01:01:57.819Z,46.55
2022-12-03T01:04:27.029Z,45.35
2022-12-03T01:06:54.845Z,46.05
2022-12-03T01:09:22.851Z,43.47
2022-12-03T01:11:50.615Z,44.70
2022-12-03T01:14:20.436Z,43.92
2022-12-03T01:16:49.134Z,39.00
2022-12-03T01:19:17.791Z,34.95
2022-12-03T01:21:49.426Z,33.78
2022-12-03T01:24:17.975Z,30.60
2022-12-03T01:26:45.798Z,29.35
2022-12-03T01:29:13.750Z,30.02
2022-12-03T01:31:58.994Z,28.58
2022-12-03T01:34:26.826Z,29.63
2022-12-03T01:36:56.095Z,30.58
2022-12-03T01:39:24.003Z,31.85
2022-12-03T01:41:53.797Z,33.00
2022-12-03T01:44:25.700Z,31.80
2022-12-03T01:46:56.962Z,32.33
2022-12-03T01:49:28.298Z,32.38
2022-12-03T01:51:58.212Z,30.70
2022-12-03T01:54:31.679Z,30.93
2022-12-03T01:56:59.721Z,32.30
2022-12-03T01:59:34.097Z,33.42
2022-12-03T02:02:09.842Z,32.67
2022-12-03T02:04:37.657Z,33.85
2022-12-03T02:07:24.189Z,34.83
2022-12-03T02:09:52.753Z,36.05
2022-12-03T02:12:26.154Z,31.95
2022-12-03T02:14:55.118Z,34.17
2022-12-03T02:17:23.163Z,32.60
2022-12-03T02:19:51.285Z,29.40
2022-12-03T02:22:38.979Z,28.40
2022-12-03T02:25:17.211Z,29.30
2022-12-03T02:27:45.585Z,26.23
2022-12-03T02:30:15.922Z,27.48
2022-12-03T02:32:43.867Z,27.30
2022-12-03T02:35:16.005Z,29.42
2022-12-03T02:37:45.821Z,30.33
2022-12-03T02:40:19.290Z,28.95
2022-12-03T02:42:47.538Z,29.33
2022-12-03T02:45:17.663Z,29.10
2022-12-03T02:47:47.854Z,30.38
2022-12-03T02:50:21.130Z,27.52
2022-12-03T02:52:50.021Z,29.13
2022-12-03T02:55:19.978Z,29.92
2022-12-03T02:57:50.586Z,28.52
2022-12-03T03:00:22.870Z,27.63
2022-12-03T03:02:51.625Z,26.40
2022-12-03T03:05:22.486Z,24.98
2022-12-03T03:07:51.279Z,24.70
2022-12-03T03:10:23.689Z,21.85
2022-12-03T03:12:53.629Z,21.98
2022-12-03T03:15:22.246Z,20.05
2022-12-03T03:17:50.384Z,21.35
2022-12-03T03:20:18.325Z,21.02
2022-12-03T03:22:46.353Z,21.00
2022-12-03T03:25:18.648Z,22.83
2022-12-03T03:27:48.039Z,22.05
2022-12-03T03:30:16.233Z,22.33
2022-12-03T03:32:44.436Z,21.95
2022-12-03T03:35:13.946Z,23.60
2022-12-03T03:37:42.949Z,24.45
2022-12-03T03:40:11.578Z,25.65
2022-12-03T03:42:39.982Z,27.50
2022-12-03T03:45:10.807Z,26.73
2022-12-03T03:47:40.207Z,27.45
2022-12-03T03:50:09.849Z,27.92
2022-12-03T03:52:38.618Z,26.05
2022-12-03T03:55:07.350Z,25.58
2022-12-03T03:57:35.168Z,25.65
2022-12-03T04:00:04.750Z,24.45
2022-12-03T04:02:34.755Z,24.87
2022-12-03T04:05:02.578Z,24.00
2022-12-03T04:07:30.480Z,27.52
2022-12-03T04:09:58.293Z,24.02
2022-12-03T04:12:43.323Z,25.63
2022-12-03T04:15:11.522Z,25.58
2022-12-03T04:17:40.651Z,24.33
2022-12-03T04:20:08.753Z,25.23
2022-12-03T04:22:41.462Z,24.63
2022-12-03T04:25:28.206Z,24.90
2022-12-03T04:28:13.783Z,25.50
2022-12-03T04:30:41.650Z,24.67
2022-12-03T04:33:28.498Z,24.38
2022-12-03T04:35:56.332Z,22.80
2022-12-03T04:38:24.229Z,22.55
2022-12-03T04:41:04.897Z,21.65
2022-12-03T04:43:34.821Z,22.40
2022-12-03T04:46:02.763Z,21.47
2022-12-03T04:48:32.050Z,21.35
2022-12-03T04:50:59.821Z,25.42
2022-12-03T04:53:27.624Z,20.90
2022-12-03T04:55:55.425Z,21.90
2022-12-03T04:58:23.212Z,20.60
2022-12-03T05:00:51.235Z,20.10
2022-12-03T05:03:19.154Z,22.15
2022-12-03T05:05:48.305Z,21.33
2022-12-03T05:08:16.149Z,19.25
2022-12-03T05:10:44.003Z,20.88
2022-12-03T05:13:11.762Z,20.13
2022-12-03T05:15:39.574Z,18.55
2022-12-03T05:18:07.372Z,20.08
2022-12-03T05:20:51.344Z,20.52
2022-12-03T05:23:22.453Z,21.50
2022-12-03T05:25:50.321Z,20.60
2022-12-03T05:28:18.492Z,22.08
2022-12-03T05:30:46.356Z,21.77
2022-12-03T05:33:14.260Z,20.70
2022-12-03T05:35:42.055Z,21.00
2022-12-03T05:38:09.932Z,20.55
2022-12-03T05:40:39.107Z,19.73
2022-12-03T05:43:06.111Z,20.42
2022-12-03T05:45:36.502Z,23.02
2022-12-03T05:48:05.801Z,20.02
2022-12-03T05:50:36.184Z,23.15
2022-12-03T05:53:04.479Z,23.02
2022-12-03T05:55:32.634Z,21.25
2022-12-03T05:58:01.773Z,22.60
2022-12-03T06:00:32.315Z,22.63
2022-12-03T06:03:00.752Z,21.67
2022-12-03T06:05:28.866Z,23.38
2022-12-03T06:07:56.746Z,23.77
2022-12-03T06:10:26.418Z,24.73
2022-12-03T06:12:54.540Z,24.67
2022-12-03T06:15:23.777Z,23.00
2022-12-03T06:17:52.270Z,23.55
2022-12-03T06:20:21.835Z,24.58
2022-12-03T06:22:50.665Z,24.60
2022-12-03T06:25:18.570Z,28.47
2022-12-03T06:27:46.427Z,26.13
2022-12-03T06:30:15.537Z,25.10
2022-12-03T06:32:44.786Z,24.80
2022-12-03T06:35:12.740Z,28.27
2022-12-03T06:37:40.594Z,26.10
2022-12-03T06:40:09.550Z,26.60
2022-12-03T06:42:37.529Z,26.55
2022-12-03T06:45:06.092Z,27.33
2022-12-03T06:47:33.911Z,27.03
2022-12-03T06:50:03.194Z,27.92
2022-12-03T06:52:30.943Z,30.38
2022-12-03T06:54:58.718Z,29.02
2022-12-03T06:57:26.558Z,32.63
2022-12-03T06:59:54.742Z,31.52
2022-12-03T07:02:22.978Z,28.13
2022-12-03T07:04:50.918Z,30.65
2022-12-03T07:07:20.037Z,28.97
2022-12-03T07:09:47.838Z,29.88
2022-12-03T07:12:15.650Z,30.40
2022-12-03T07:14:43.530Z,28.50
2022-12-03T07:17:11.486Z,29.80
2022-12-03T07:19:39.351Z,28.52
2022-12-03T07:22:07.195Z,27.77
2022-12-03T07:24:36.442Z,27.60
2022-12-03T07:27:04.402Z,26.65
2022-12-03T07:29:32.206Z,30.08
2022-12-03T07:31:59.969Z,27.50
2022-12-03T07:34:28.789Z,27.38
2022-12-03T07:36:56.616Z,28.50
2022-12-03T07:39:24.418Z,26.25
2022-12-03T07:41:53.565Z,26.08
2022-12-03T07:44:21.321Z,26.50
2022-12-03T07:46:49.202Z,27.58
2022-12-03T07:49:17.013Z,29.80
2022-12-03T07:51:53.244Z,27.48
2022-12-03T07:54:21.568Z,26.65
2022-12-03T07:56:49.386Z,25.13
2022-12-03T07:59:18.774Z,27.58
2022-12-03T08:01:46.705Z,28.20
2022-12-03T08:04:14.790Z,25.92
2022-12-03T08:06:42.740Z,25.02
2022-12-03T08:09:15.783Z,25.48
2022-12-03T08:11:45.067Z,26.65
2022-12-03T08:14:14.874Z,26.30
2022-12-03T08:16:45.701Z,26.55
2022-12-03T08:19:14.829Z,24.95
2022-12-03T08:21:42.888Z,24.83
2022-12-03T08:24:15.526Z,25.42
2022-12-03T08:26:44.815Z,26.42
2022-12-03T08:29:14.832Z,25.52
2022-12-03T08:31:49.111Z,23.60
2022-12-03T08:34:19.913Z,24.73
2022-12-03T08:36:48.424Z,23.70
2022-12-03T08:39:29.025Z,24.38
2022-12-03T08:42:21.248Z,22.77
2022-12-03T08:44:49.103Z,23.88
2022-12-03T08:47:21.595Z,23.13
2022-12-03T08:49:54.837Z,24.05
2022-12-03T08:52:27.652Z,25.38
2022-12-03T08:54:57.180Z,22.40
2022-12-03T08:57:29.937Z,21.70
2022-12-03T09:00:01.291Z,24.30
2022-12-03T09:02:34.428Z,25.13
2022-12-03T09:05:14.430Z,23.25
2022-12-03T09:07:42.320Z,24.33
2022-12-03T09:10:10.818Z,23.07
2022-12-03T09:12:38.628Z,25.45
2022-12-03T09:15:07.379Z,25.88
2022-12-03T09:17:36.537Z,24.83
2022-12-03T09:20:04.829Z,24.48
2022-12-03T09:22:33.103Z,24.70
2022-12-03T09:25:00.882Z,25.52
2022-12-03T09:27:28.641Z,23.88
2022-12-03T09:29:56.507Z,25.50
2022-12-03T09:32:24.314Z,25.10
2022-12-03T09:34:54.272Z,25.98
2022-12-03T09:37:22.301Z,24.88
2022-12-03T09:39:50.410Z,25.17
2022-12-03T09:42:18.551Z,24.97
2022-12-03T09:44:46.474Z,24.40
2022-12-03T09:47:14.691Z,25.95
2022-12-03T09:49:42.974Z,25.53
2022-12-03T09:52:24.908Z,23.83
2022-12-03T09:54:53.966Z,25.05
2022-12-03T09:57:22.146Z,23.77
2022-12-03T09:59:50.429Z,23.80
2022-12-03T10:02:22.578Z,22.47
2022-12-03T10:04:50.738Z,24.50
2022-12-03T10:07:20.488Z,24.00
2022-12-03T10:09:48.404Z,24.23
2022-12-03T10:12:21.587Z,21.80
2022-12-03T10:14:49.617Z,23.77
2022-12-03T10:17:18.141Z,22.58
2022-12-03T10:19:46.281Z,24.67
2022-12-03T10:22:14.113Z,21.95
2022-12-03T10:24:44.667Z,21.55
2022-12-03T10:27:23.332Z,23.48
2022-12-03T10:29:58.177Z,22.27
2022-12-03T10:32:27.621Z,25.00
2022-12-03T10:35:09.578Z,23.58
2022-12-03T10:37:37.403Z,22.77
2022-12-03T10:40:09.517Z,23.05
2022-12-03T10:42:39.329Z,22.23
2022-12-03T10:45:18.399Z,21.95
2022-12-03T10:48:04.358Z,22.70
2022-12-03T10:50:32.542Z,22.20
2022-12-03T10:53:00.604Z,22.00
2022-12-03T10:55:35.064Z,24.10
2022-12-03T10:58:02.978Z,25.75
2022-12-03T11:00:30.756Z,24.85
2022-12-03T11:02:58.758Z,24.85
2022-12-03T11:05:28.378Z,23.85
2022-12-03T11:07:57.225Z,22.85
2022-12-03T11:10:26.204Z,21.50
2022-12-03T11:13:45.647Z,22.30
2022-12-03T11:16:15.890Z,25.65
2022-12-03T11:19:01.072Z,26.35
2022-12-03T11:21:29.485Z,28.58
2022-12-03T11:24:19.675Z,29.52
2022-12-03T11:27:19.497Z,28.88
2022-12-03T11:29:50.588Z,28.08
2022-12-03T11:33:01.237Z,28.90
2022-12-03T11:35:54.317Z,27.02
2022-12-03T11:38:52.290Z,26.50
2022-12-03T11:41:23.432Z,30.23
2022-12-03T11:44:03.989Z,28.15
2022-12-03T11:46:41.481Z,29.98
2022-12-03T11:49:33.672Z,32.67
2022-12-03T11:52:13.134Z,34.33
2022-12-03T11:54:40.995Z,31.35
2022-12-03T11:57:36.652Z,31.67
2022-12-03T12:00:19.729Z,31.13
2022-12-03T12:02:48.666Z,30.45
2022-12-03T12:05:22.212Z,31.05
2022-12-03T12:07:52.485Z,34.83
2022-12-03T12:10:45.364Z,30.95
2022-12-03T12:13:54.317Z,32.33
2022-12-03T12:16:41.251Z,33.65
2022-12-03T12:19:43.894Z,32.67
2022-12-03T12:22:20.323Z,30.58
2022-12-03T12:24:52.288Z,31.80
2022-12-03T12:27:22.165Z,30.98
2022-12-03T12:29:55.212Z,32.83
2022-12-03T12:32:26.391Z,30.52
2022-12-03T12:34:58.222Z,29.63
2022-12-03T12:37:33.423Z,29.38
2022-12-03T12:40:07.157Z,29.58
2022-12-03T12:42:37.326Z,28.97
2022-12-03T12:45:17.091Z,29.48
2022-12-03T12:47:50.133Z,28.95
2022-12-03T12:50:19.900Z,29.10
2022-12-03T12:52:52.144Z,29.55
2022-12-03T12:55:21.960Z,30.13
2022-12-03T12:57:49.876Z,30.42
2022-12-03T13:00:21.302Z,30.15
2022-12-03T13:02:53.137Z,30.55
2022-12-03T13:05:21.648Z,33.30
2022-12-03T13:07:49.592Z,31.20
2022-12-03T13:10:34.021Z,32.45
2022-12-03T13:13:23.693Z,32.85
2022-12-03T13:15:58.465Z,33.08
2022-12-03T13:18:33.403Z,31.05
2022-12-03T13:21:10.858Z,33.17
2022-12-03T13:23:38.774Z,32.13
2022-12-03T13:26:34.101Z,32.35
2022-12-03T13:29:12.609Z,31.88
2022-12-03T13:31:43.901Z,31.98
2022-12-03T13:34:16.612Z,32.20
2022-12-03T13:36:50.557Z,30.08
2022-12-03T13:39:27.920Z,30.83
2022-12-03T13:42:14.957Z,30.25
2022-12-03T13:44:45.490Z,30.48
2022-12-03T13:47:15.840Z,31.20
2022-12-03T13:49:47.647Z,31.42
2022-12-03T13:52:19.921Z,30.23
2022-12-03T13:54:51.653Z,30.33
2022-12-03T13:57:21.006Z,29.63
2022-12-03T13:59:48.790Z,30.08
2022-12-03T14:02:16.698Z,31.30
2022-12-03T14:04:44.636Z,30.05
2022-12-03T14:07:12.398Z,29.67
2022-12-03T14:09:40.195Z,29.83
2022-12-03T14:12:26.727Z,28.25
2022-12-03T14:14:57.096Z,29.90
2022-12-03T14:17:25.026Z,31.95
2022-12-03T14:19:53.333Z,32.63
2022-12-03T14:22:23.392Z,30.92
2022-12-03T14:24:51.308Z,32.15
2022-12-03T14:27:19.352Z,31.48
2022-12-03T14:29:47.483Z,31.15
2022-12-03T14:32:16.704Z,30.38
2022-12-03T14:34:44.691Z,30.45
2022-12-03T14:37:12.588Z,30.35
2022-12-03T14:39:40.482Z,31.58
2022-12-03T14:42:13.909Z,31.35
2022-12-03T14:44:42.589Z,29.30
2022-12-03T14:47:10.476Z,30.33
2022-12-03T14:49:39.926Z,29.67
2022-12-03T14:52:11.889Z,31.30
2022-12-03T14:54:42.032Z,31.67
2022-12-03T14:57:11.221Z,29.90
2022-12-03T14:59:38.993Z,31.63
2022-12-03T15:02:06.845Z,31.77
2022-12-03T15:04:35.306Z,28.40
2022-12-03T15:07:04.740Z,29.55
2022-12-03T15:09:32.611Z,29.08
2022-12-03T15:12:00.577Z,28.40
2022-12-03T15:14:28.397Z,30.83
2022-12-03T15:16:57.324Z,30.67
2022-12-03T15:19:25.255Z,31.53
2022-12-03T15:21:53.060Z,33.65
2022-12-03T15:24:22.317Z,33.63
2022-12-03T15:26:52.108Z,30.90
2022-12-03T15:29:20.097Z,30.35
2022-12-03T15:31:48.052Z,31.42
2022-12-03T15:34:21.839Z,31.15
2022-12-03T15:36:50.533Z,28.85
2022-12-03T15:39:18.620Z,28.73
2022-12-03T15:41:47.786Z,28.75
2022-12-03T15:44:15.617Z,31.27
2022-12-03T15:46:43.519Z,31.67
2022-12-03T15:49:11.394Z,32.37
2022-12-03T15:51:39.177Z,29.10
2022-12-03T15:54:07.144Z,30.17
2022-12-03T15:56:37.363Z,30.42
2022-12-03T15:59:06.539Z,30.67
2022-12-03T16:01:34.353Z,30.13
2022-12-03T16:04:02.205Z,35.00
2022-12-03T16:06:30.038Z,32.92
2022-12-03T16:08:57.800Z,32.10
2022-12-03T16:11:25.557Z,35.78
2022-12-03T16:13:53.370Z,39.03
2022-12-03T16:16:22.627Z,36.88
2022-12-03T16:18:50.457Z,39.88
2022-12-03T16:21:24.957Z,41.60
2022-12-03T16:23:54.412Z,40.83
2022-12-03T16:26:22.771Z,43.30
2022-12-03T16:28:50.619Z,38.38
2022-12-03T16:31:19.050Z,39.70
2022-12-03T16:33:48.538Z,39.22
2022-12-03T16:36:16.957Z,39.17
2022-12-03T16:38:44.733Z,39.30
2022-12-03T16:41:12.583Z,40.13
2022-12-03T16:43:40.402Z,41.35
2022-12-03T16:46:21.214Z,41.28
2022-12-03T16:48:50.696Z,42.22
2022-12-03T16:51:19.925Z,41.65
2022-12-03T16:53:48.054Z,42.20
2022-12-03T16:56:16.153Z,43.97
2022-12-03T16:58:44.448Z,43.30
2022-12-03T17:01:12.682Z,44.90
2022-12-03T17:03:40.622Z,43.35
2022-12-03T17:06:10.039Z,45.23
2022-12-03T17:08:37.869Z,44.20
2022-12-03T17:11:05.904Z,43.08
2022-12-03T17:13:33.875Z,46.00
2022-12-03T17:16:01.804Z,45.95
2022-12-03T17:18:29.614Z,43.70
2022-12-03T17:20:57.433Z,45.75
2022-12-03T17:23:26.846Z,48.17
2022-12-03T17:25:54.621Z,48.17
2022-12-03T17:28:22.860Z,43.80
2022-12-03T17:30:50.714Z,46.28
2022-12-03T17:33:18.514Z,46.33
2022-12-03T17:35:46.530Z,44.88
2022-12-03T17:38:14.362Z,41.38
2022-12-03T17:40:43.612Z,52.42
2022-12-03T17:43:11.373Z,43.65
2022-12-03T17:45:39.613Z,41.00
2022-12-03T17:48:08.222Z,42.13
2022-12-03T17:50:36.054Z,43.65
2022-12-03T17:53:07.860Z,42.05
2022-12-03T17:55:41.263Z,44.08
2022-12-03T17:58:13.495Z,44.00
2022-12-03T18:00:41.413Z,44.15
2022-12-03T18:03:09.223Z,40.90
2022-12-03T18:05:37.057Z,39.92
2022-12-03T18:08:05.093Z,42.97
2022-12-03T18:10:32.918Z,42.67
2022-12-03T18:13:02.100Z,40.47
2022-12-03T18:15:33.380Z,39.08
2022-12-03T18:18:01.320Z,37.60
2022-12-03T18:20:29.257Z,35.53
2022-12-03T18:22:58.450Z,36.72
2022-12-03T18:25:26.490Z,39.30
2022-12-03T18:27:54.285Z,38.67
2022-12-03T18:30:22.414Z,38.70
2022-12-03T18:32:51.568Z,39.65
2022-12-03T18:35:20.410Z,38.95
2022-12-03T18:37:49.997Z,39.28
2022-12-03T18:40:19.970Z,42.40
2022-12-03T18:42:48.169Z,37.90
2022-12-03T18:45:16.392Z,41.20
2022-12-03T18:47:44.340Z,37.72
2022-12-03T18:50:14.609Z,39.87
2022-12-03T18:52:42.447Z,38.10
2022-12-03T18:55:17.375Z,40.03
2022-12-03T18:57:45.314Z,41.05
2022-12-03T19:00:14.570Z,42.38
2022-12-03T19:05:32.329Z,36.77
2022-12-03T19:08:00.637Z,36.65
2022-12-03T19:10:28.805Z,36.05
2022-12-03T19:12:56.596Z,35.08
2022-12-03T19:15:24.357Z,33.88
2022-12-03T19:17:52.474Z,34.37
2022-12-03T19:20:20.429Z,35.28
2022-12-03T19:22:49.537Z,33.63
2022-12-03T19:25:17.401Z,33.35
2022-12-03T19:27:45.269Z,36.17
2022-12-03T19:30:13.874Z,34.42
2022-12-03T19:32:41.654Z,34.78
2022-12-03T19:35:11.891Z,32.13
2022-12-03T19:37:39.791Z,35.42
2022-12-03T19:40:11.123Z,32.25
2022-12-03T19:42:39.061Z,33.47
2022-12-03T19:45:08.056Z,35.75
2022-12-03T19:47:36.034Z,34.20
2022-12-03T19:50:04.039Z,35.08
2022-12-03T19:52:31.835Z,40.22
2022-12-03T19:54:59.645Z,37.35
2022-12-03T19:57:29.215Z,35.25
2022-12-03T19:59:57.384Z,36.40
2022-12-03T20:02:25.555Z,35.35
2022-12-03T20:04:53.459Z,35.83
2022-12-03T20:07:21.210Z,37.28
2022-12-03T20:09:51.122Z,33.80
2022-12-03T20:12:18.965Z,37.05
2022-12-03T20:14:49.771Z,40.92
2022-12-03T20:17:17.553Z,41.88
2022-12-03T20:19:45.317Z,42.13
2022-12-03T20:22:13.701Z,40.95
2022-12-03T20:24:41.543Z,40.35
2022-12-03T20:27:09.306Z,39.97
2022-12-03T20:29:37.116Z,36.85
2022-12-03T20:32:07.218Z,39.05
2022-12-03T20:34:35.776Z,32.33
2022-12-03T20:37:03.859Z,31.45
2022-12-03T20:39:31.673Z,30.52
2022-12-03T20:41:59.498Z,30.08
2022-12-03T20:44:27.270Z,30.05
2022-12-03T20:46:55.095Z,26.70
2022-12-03T20:49:24.255Z,28.38
2022-12-03T20:51:52.069Z,29.97
2022-12-03T20:54:19.976Z,29.95
2022-12-03T20:56:47.807Z,27.53
2022-12-03T20:59:17.752Z,29.10
2022-12-03T21:01:46.213Z,28.97
2022-12-03T21:04:15.935Z,29.08
2022-12-03T21:06:45.761Z,27.30
2022-12-03T21:09:14.291Z,29.50
2022-12-03T21:11:42.471Z,29.52
2022-12-03T21:14:11.035Z,28.40
2022-12-03T21:19:29.870Z,26.15
2022-12-03T21:21:58.994Z,25.92
2022-12-03T21:24:26.823Z,29.40
2022-12-03T21:26:54.685Z,29.17
2022-12-03T21:29:22.647Z,29.83
2022-12-03T21:31:50.449Z,27.00
2022-12-03T21:34:18.271Z,28.63
2022-12-03T21:36:46.053Z,28.80
2022-12-03T21:39:15.216Z,27.67
2022-12-03T21:42:19.087Z,29.45
2022-12-03T21:44:30.941Z,29.42
2022-12-03T21:47:09.264Z,30.48
2022-12-03T21:49:40.808Z,31.73
2022-12-03T21:52:08.690Z,29.35
2022-12-03T21:54:37.780Z,32.50
2022-12-03T21:57:05.547Z,31.00
2022-12-03T21:59:33.451Z,33.33
2022-12-03T22:02:01.318Z,31.42
2022-12-03T22:04:29.209Z,31.42
2022-12-03T22:06:57.006Z,30.02
2022-12-03T22:09:26.857Z,27.85
2022-12-03T22:11:59.097Z,28.58
2022-12-03T22:14:26.881Z,28.27
2022-12-03T22:16:54.876Z,26.45
2022-12-03T22:19:23.297Z,26.17
2022-12-03T22:21:51.165Z,28.85
2022-12-03T22:24:19.467Z,26.38
2022-12-03T22:26:48.016Z,27.95
2022-12-03T22:29:17.184Z,30.55
2022-12-03T22:31:45.057Z,27.33
2022-12-03T22:34:12.911Z,28.07
2022-12-03T22:36:40.752Z,28.48
2022-12-03T22:39:08.697Z,29.45
2022-12-03T22:41:36.497Z,28.88
2022-12-03T22:44:04.405Z,30.30
2022-12-03T22:46:33.657Z,32.92
2022-12-03T22:49:06.708Z,29.55
2022-12-03T22:51:35.651Z,26.92
2022-12-03T22:54:03.673Z,29.52
2022-12-03T22:56:32.155Z,28.88
2022-12-03T22:59:00.053Z,27.70
2022-12-03T23:01:29.934Z,29.42
2022-12-03T23:03:59.513Z,30.67
2022-12-03T23:06:28.059Z,29.58
2022-12-03T23:08:56.780Z,29.75
2022-12-03T23:11:24.801Z,29.33
2022-12-03T23:13:52.649Z,30.83
2022-12-03T23:16:22.935Z,27.50
2022-12-03T23:18:51.413Z,32.90
2022-12-03T23:21:27.236Z,31.53
2022-12-03T23:23:57.466Z,30.00
2022-12-03T23:26:25.313Z,30.63
2022-12-03T23:28:53.146Z,29.80
2022-12-03T23:31:23.364Z,27.98
2022-12-03T23:33:52.224Z,29.02
2022-12-03T23:36:22.619Z,30.50
2022-12-03T23:38:50.695Z,28.55
2022-12-03T23:41:20.958Z,29.60
2022-12-03T23:43:48.945Z,30.05
2022-12-03T23:46:19.054Z,32.50
2022-12-03T23:48:46.972Z,30.70
2022-12-03T23:51:17.151Z,29.63
2022-12-03T23:53:46.424Z,28.52
2022-12-03T23:56:16.533Z,29.65
2022-12-03T23:58:44.341Z,31.52
